sensor_id;sensor_type;location;lat;lon;timestamp;P1;durP1;ratioP1;P2;durP2;ratioP2
18425;SDS011;9340;48.756;9.226;2023-07-02T00:00:06;7.00;;;6.40;;
18425;SDS011;9340;48.756;9.226;2023-07-02T00:02:34;7.38;;;6.78;;
18425;SDS011;9340;48.756;9.226;2023-07-02T00:05:01;7.68;;;6.97;;
18425;SDS011;9340;48.756;9.226;2023-07-02T00:07:28;6.88;;;6.22;;
18425;SDS011;9340;48.756;9.226;2023-07-02T00:09:54;6.90;;;6.30;;
18425;SDS011;9340;48.756;9.226;2023-07-02T00:12:21;8.13;;;7.32;;
18425;SDS011;9340;48.756;9.226;2023-07-02T00:14:49;7.40;;;6.80;;
18425;SDS011;9340;48.756;9.226;2023-07-02T00:17:18;6.47;;;5.97;;
18425;SDS011;9340;48.756;9.226;2023-07-02T00:19:44;6.47;;;5.97;;
18425;SDS011;9340;48.756;9.226;2023-07-02T00:22:11;7.20;;;6.53;;
18425;SDS011;9340;48.756;9.226;2023-07-02T00:24:41;6.27;;;5.73;;
18425;SDS011;9340;48.756;9.226;2023-07-02T00:27:07;5.95;;;5.45;;
18425;SDS011;9340;48.756;9.226;2023-07-02T00:29:34;7.00;;;6.50;;
18425;SDS011;9340;48.756;9.226;2023-07-02T00:32:03;5.43;;;5.05;;
18425;SDS011;9340;48.756;9.226;2023-07-02T00:34:30;6.30;;;5.80;;
18425;SDS011;9340;48.756;9.226;2023-07-02T00:36:57;7.03;;;6.43;;
18425;SDS011;9340;48.756;9.226;2023-07-02T00:39:24;7.60;;;7.00;;
18425;SDS011;9340;48.756;9.226;2023-07-02T00:41:50;6.13;;;5.53;;
18425;SDS011;9340;48.756;9.226;2023-07-02T00:44:17;7.90;;;7.20;;
18425;SDS011;9340;48.756;9.226;2023-07-02T00:46:44;5.83;;;5.43;;
18425;SDS011;9340;48.756;9.226;2023-07-02T00:49:12;5.88;;;5.30;;
18425;SDS011;9340;48.756;9.226;2023-07-02T00:51:38;7.03;;;6.53;;
18425;SDS011;9340;48.756;9.226;2023-07-02T00:54:06;6.18;;;5.75;;
18425;SDS011;9340;48.756;9.226;2023-07-02T00:56:33;6.83;;;6.23;;
18425;SDS011;9340;48.756;9.226;2023-07-02T00:58:59;7.97;;;7.45;;
18425;SDS011;9340;48.756;9.226;2023-07-02T01:01:26;6.78;;;6.22;;
18425;SDS011;9340;48.756;9.226;2023-07-02T01:03:56;6.13;;;5.63;;
18425;SDS011;9340;48.756;9.226;2023-07-02T01:06:26;7.78;;;7.18;;
18425;SDS011;9340;48.756;9.226;2023-07-02T01:08:54;6.30;;;5.80;;
18425;SDS011;9340;48.756;9.226;2023-07-02T01:11:23;5.90;;;5.47;;
18425;SDS011;9340;48.756;9.226;2023-07-02T01:13:53;5.10;;;4.70;;
18425;SDS011;9340;48.756;9.226;2023-07-02T01:16:24;7.50;;;6.90;;
18425;SDS011;9340;48.756;9.226;2023-07-02T01:18:51;4.90;;;4.50;;
18425;SDS011;9340;48.756;9.226;2023-07-02T01:21:21;6.32;;;5.80;;
18425;SDS011;9340;48.756;9.226;2023-07-02T01:23:49;6.85;;;6.35;;
18425;SDS011;9340;48.756;9.226;2023-07-02T01:26:16;6.32;;;5.85;;
18425;SDS011;9340;48.756;9.226;2023-07-02T01:28:43;6.80;;;6.20;;
18425;SDS011;9340;48.756;9.226;2023-07-02T01:31:10;6.23;;;5.83;;
18425;SDS011;9340;48.756;9.226;2023-07-02T01:33:37;6.60;;;6.10;;
18425;SDS011;9340;48.756;9.226;2023-07-02T01:36:04;5.90;;;5.20;;
18425;SDS011;9340;48.756;9.226;2023-07-02T01:38:32;5.40;;;4.57;;
18425;SDS011;9340;48.756;9.226;2023-07-02T01:40:59;6.50;;;6.00;;
18425;SDS011;9340;48.756;9.226;2023-07-02T01:43:25;6.13;;;5.63;;
18425;SDS011;9340;48.756;9.226;2023-07-02T01:45:52;6.47;;;5.87;;
18425;SDS011;9340;48.756;9.226;2023-07-02T01:48:20;6.13;;;5.63;;
18425;SDS011;9340;48.756;9.226;2023-07-02T01:50:47;6.90;;;6.23;;
18425;SDS011;9340;48.756;9.226;2023-07-02T01:53:14;7.03;;;6.53;;
18425;SDS011;9340;48.756;9.226;2023-07-02T01:55:42;6.70;;;6.20;;
18425;SDS011;9340;48.756;9.226;2023-07-02T01:58:08;6.10;;;5.60;;
18425;SDS011;9340;48.756;9.226;2023-07-02T02:00:35;5.93;;;5.53;;
18425;SDS011;9340;48.756;9.226;2023-07-02T02:03:02;6.17;;;5.17;;
18425;SDS011;9340;48.756;9.226;2023-07-02T02:05:30;6.50;;;6.00;;
18425;SDS011;9340;48.756;9.226;2023-07-02T02:07:56;5.43;;;5.03;;
18425;SDS011;9340;48.756;9.226;2023-07-02T02:10:23;6.60;;;6.10;;
18425;SDS011;9340;48.756;9.226;2023-07-02T02:12:51;7.05;;;5.10;;
18425;SDS011;9340;48.756;9.226;2023-07-02T02:15:18;5.82;;;5.32;;
18425;SDS011;9340;48.756;9.226;2023-07-02T02:17:44;6.05;;;5.55;;
18425;SDS011;9340;48.756;9.226;2023-07-02T02:20:11;5.60;;;5.13;;
18425;SDS011;9340;48.756;9.226;2023-07-02T02:22:38;6.60;;;5.90;;
18425;SDS011;9340;48.756;9.226;2023-07-02T02:25:05;5.45;;;5.05;;
18425;SDS011;9340;48.756;9.226;2023-07-02T02:27:32;5.40;;;5.00;;
18425;SDS011;9340;48.756;9.226;2023-07-02T02:30:00;5.70;;;5.20;;
18425;SDS011;9340;48.756;9.226;2023-07-02T02:32:26;5.40;;;5.00;;
18425;SDS011;9340;48.756;9.226;2023-07-02T02:34:53;5.32;;;4.90;;
18425;SDS011;9340;48.756;9.226;2023-07-02T02:37:20;6.13;;;5.15;;
18425;SDS011;9340;48.756;9.226;2023-07-02T02:39:48;6.03;;;5.47;;
18425;SDS011;9340;48.756;9.226;2023-07-02T02:42:14;5.35;;;4.85;;
18425;SDS011;9340;48.756;9.226;2023-07-02T02:44:41;5.93;;;5.32;;
18425;SDS011;9340;48.756;9.226;2023-07-02T02:47:09;5.63;;;5.13;;
18425;SDS011;9340;48.756;9.226;2023-07-02T02:49:36;5.47;;;5.07;;
18425;SDS011;9340;48.756;9.226;2023-07-02T02:52:04;5.50;;;4.82;;
18425;SDS011;9340;48.756;9.226;2023-07-02T02:54:30;6.97;;;6.38;;
18425;SDS011;9340;48.756;9.226;2023-07-02T02:56:57;5.67;;;5.23;;
18425;SDS011;9340;48.756;9.226;2023-07-02T02:59:25;5.55;;;5.05;;
18425;SDS011;9340;48.756;9.226;2023-07-02T03:01:51;5.82;;;5.32;;
18425;SDS011;9340;48.756;9.226;2023-07-02T03:04:19;5.13;;;4.72;;
18425;SDS011;9340;48.756;9.226;2023-07-02T03:06:50;5.43;;;4.95;;
18425;SDS011;9340;48.756;9.226;2023-07-02T03:09:17;4.90;;;4.40;;
18425;SDS011;9340;48.756;9.226;2023-07-02T03:11:44;4.40;;;4.10;;
18425;SDS011;9340;48.756;9.226;2023-07-02T03:14:12;4.40;;;4.10;;
18425;SDS011;9340;48.756;9.226;2023-07-02T03:16:38;5.18;;;4.72;;
18425;SDS011;9340;48.756;9.226;2023-07-02T03:19:05;4.87;;;4.47;;
18425;SDS011;9340;48.756;9.226;2023-07-02T03:21:33;5.82;;;4.97;;
18425;SDS011;9340;48.756;9.226;2023-07-02T03:23:59;4.40;;;4.00;;
18425;SDS011;9340;48.756;9.226;2023-07-02T03:26:27;5.15;;;4.75;;
18425;SDS011;9340;48.756;9.226;2023-07-02T03:28:53;4.45;;;4.15;;
18425;SDS011;9340;48.756;9.226;2023-07-02T03:31:20;4.20;;;3.90;;
18425;SDS011;9340;48.756;9.226;2023-07-02T03:33:46;5.70;;;4.63;;
18425;SDS011;9340;48.756;9.226;2023-07-02T03:36:13;4.63;;;4.20;;
18425;SDS011;9340;48.756;9.226;2023-07-02T03:38:41;5.15;;;4.65;;
18425;SDS011;9340;48.756;9.226;2023-07-02T03:41:08;4.85;;;4.53;;
18425;SDS011;9340;48.756;9.226;2023-07-02T03:43:34;4.97;;;4.27;;
18425;SDS011;9340;48.756;9.226;2023-07-02T03:46:01;4.90;;;4.50;;
18425;SDS011;9340;48.756;9.226;2023-07-02T03:48:28;5.23;;;4.07;;
18425;SDS011;9340;48.756;9.226;2023-07-02T03:50:54;5.47;;;5.03;;
18425;SDS011;9340;48.756;9.226;2023-07-02T03:53:21;6.35;;;4.53;;
18425;SDS011;9340;48.756;9.226;2023-07-02T03:55:49;4.83;;;4.37;;
18425;SDS011;9340;48.756;9.226;2023-07-02T03:58:15;5.18;;;4.72;;
18425;SDS011;9340;48.756;9.226;2023-07-02T04:00:42;5.37;;;4.90;;
18425;SDS011;9340;48.756;9.226;2023-07-02T04:03:09;6.93;;;4.65;;
18425;SDS011;9340;48.756;9.226;2023-07-02T04:05:35;5.28;;;4.78;;
18425;SDS011;9340;48.756;9.226;2023-07-02T04:08:02;5.57;;;4.93;;
18425;SDS011;9340;48.756;9.226;2023-07-02T04:10:29;4.23;;;3.87;;
18425;SDS011;9340;48.756;9.226;2023-07-02T04:12:57;5.90;;;5.15;;
18425;SDS011;9340;48.756;9.226;2023-07-02T04:15:24;4.68;;;4.28;;
18425;SDS011;9340;48.756;9.226;2023-07-02T04:17:51;5.93;;;5.43;;
18425;SDS011;9340;48.756;9.226;2023-07-02T04:20:19;5.57;;;5.00;;
18425;SDS011;9340;48.756;9.226;2023-07-02T04:22:46;4.93;;;4.45;;
18425;SDS011;9340;48.756;9.226;2023-07-02T04:25:13;5.47;;;4.80;;
18425;SDS011;9340;48.756;9.226;2023-07-02T04:27:41;5.20;;;4.70;;
18425;SDS011;9340;48.756;9.226;2023-07-02T04:30:09;6.38;;;5.53;;
18425;SDS011;9340;48.756;9.226;2023-07-02T04:32:37;7.88;;;5.00;;
18425;SDS011;9340;48.756;9.226;2023-07-02T04:35:05;6.13;;;5.05;;
18425;SDS011;9340;48.756;9.226;2023-07-02T04:37:32;5.90;;;5.40;;
18425;SDS011;9340;48.756;9.226;2023-07-02T04:39:59;6.55;;;5.90;;
18425;SDS011;9340;48.756;9.226;2023-07-02T04:42:26;7.18;;;5.85;;
18425;SDS011;9340;48.756;9.226;2023-07-02T04:44:53;6.05;;;5.45;;
18425;SDS011;9340;48.756;9.226;2023-07-02T04:47:21;7.03;;;6.32;;
18425;SDS011;9340;48.756;9.226;2023-07-02T04:49:48;7.68;;;5.30;;
18425;SDS011;9340;48.756;9.226;2023-07-02T04:52:14;8.98;;;5.65;;
18425;SDS011;9340;48.756;9.226;2023-07-02T04:54:41;7.90;;;5.88;;
18425;SDS011;9340;48.756;9.226;2023-07-02T04:57:08;6.13;;;5.53;;
18425;SDS011;9340;48.756;9.226;2023-07-02T04:59:34;7.95;;;6.07;;
18425;SDS011;9340;48.756;9.226;2023-07-02T05:02:01;6.23;;;5.60;;
18425;SDS011;9340;48.756;9.226;2023-07-02T05:04:29;6.60;;;5.93;;
18425;SDS011;9340;48.756;9.226;2023-07-02T05:06:56;8.57;;;6.63;;
18425;SDS011;9340;48.756;9.226;2023-07-02T05:09:23;7.13;;;5.67;;
18425;SDS011;9340;48.756;9.226;2023-07-02T05:11:49;6.33;;;5.43;;
18425;SDS011;9340;48.756;9.226;2023-07-02T05:14:16;6.73;;;5.53;;
18425;SDS011;9340;48.756;9.226;2023-07-02T05:16:43;6.43;;;4.93;;
18425;SDS011;9340;48.756;9.226;2023-07-02T05:19:10;6.07;;;5.47;;
18425;SDS011;9340;48.756;9.226;2023-07-02T05:21:37;5.38;;;4.88;;
18425;SDS011;9340;48.756;9.226;2023-07-02T05:24:04;5.97;;;4.97;;
18425;SDS011;9340;48.756;9.226;2023-07-02T05:26:32;5.40;;;4.65;;
18425;SDS011;9340;48.756;9.226;2023-07-02T05:28:59;5.97;;;4.97;;
18425;SDS011;9340;48.756;9.226;2023-07-02T05:31:25;5.45;;;4.72;;
18425;SDS011;9340;48.756;9.226;2023-07-02T05:33:52;5.53;;;4.97;;
18425;SDS011;9340;48.756;9.226;2023-07-02T05:36:19;6.03;;;5.35;;
18425;SDS011;9340;48.756;9.226;2023-07-02T05:38:47;6.30;;;5.70;;
18425;SDS011;9340;48.756;9.226;2023-07-02T05:41:17;6.53;;;5.40;;
18425;SDS011;9340;48.756;9.226;2023-07-02T05:43:44;9.80;;;6.30;;
18425;SDS011;9340;48.756;9.226;2023-07-02T05:46:11;8.10;;;5.80;;
18425;SDS011;9340;48.756;9.226;2023-07-02T05:48:39;7.07;;;6.35;;
18425;SDS011;9340;48.756;9.226;2023-07-02T05:51:06;7.38;;;6.43;;
18425;SDS011;9340;48.756;9.226;2023-07-02T05:53:33;8.52;;;5.75;;
18425;SDS011;9340;48.756;9.226;2023-07-02T05:56:01;5.80;;;5.30;;
18425;SDS011;9340;48.756;9.226;2023-07-02T05:58:28;5.57;;;5.07;;
18425;SDS011;9340;48.756;9.226;2023-07-02T06:00:55;7.47;;;6.00;;
18425;SDS011;9340;48.756;9.226;2023-07-02T06:03:21;5.97;;;5.25;;
18425;SDS011;9340;48.756;9.226;2023-07-02T06:05:48;7.80;;;5.50;;
18425;SDS011;9340;48.756;9.226;2023-07-02T06:08:15;7.97;;;6.50;;
18425;SDS011;9340;48.756;9.226;2023-07-02T06:10:43;7.32;;;6.57;;
18425;SDS011;9340;48.756;9.226;2023-07-02T06:13:13;7.25;;;6.10;;
18425;SDS011;9340;48.756;9.226;2023-07-02T06:15:40;7.22;;;6.45;;
18425;SDS011;9340;48.756;9.226;2023-07-02T06:18:07;9.95;;;7.20;;
18425;SDS011;9340;48.756;9.226;2023-07-02T06:20:33;7.88;;;7.03;;
18425;SDS011;9340;48.756;9.226;2023-07-02T06:23:00;11.18;;;7.25;;
18425;SDS011;9340;48.756;9.226;2023-07-02T06:25:26;9.02;;;7.50;;
18425;SDS011;9340;48.756;9.226;2023-07-02T06:27:53;8.20;;;7.35;;
18425;SDS011;9340;48.756;9.226;2023-07-02T06:30:24;8.77;;;7.60;;
18425;SDS011;9340;48.756;9.226;2023-07-02T06:32:51;10.35;;;7.80;;
18425;SDS011;9340;48.756;9.226;2023-07-02T06:35:18;9.27;;;7.57;;
18425;SDS011;9340;48.756;9.226;2023-07-02T06:37:45;9.52;;;8.63;;
18425;SDS011;9340;48.756;9.226;2023-07-02T06:40:12;10.68;;;8.93;;
18425;SDS011;9340;48.756;9.226;2023-07-02T06:42:39;12.68;;;9.60;;
18425;SDS011;9340;48.756;9.226;2023-07-02T06:45:06;12.43;;;10.13;;
18425;SDS011;9340;48.756;9.226;2023-07-02T06:47:35;11.52;;;10.32;;
18425;SDS011;9340;48.756;9.226;2023-07-02T06:50:01;12.13;;;10.35;;
18425;SDS011;9340;48.756;9.226;2023-07-02T06:52:28;11.07;;;9.88;;
18425;SDS011;9340;48.756;9.226;2023-07-02T06:54:55;14.25;;;10.35;;
18425;SDS011;9340;48.756;9.226;2023-07-02T06:57:22;12.13;;;10.27;;
18425;SDS011;9340;48.756;9.226;2023-07-02T06:59:49;13.75;;;10.38;;
18425;SDS011;9340;48.756;9.226;2023-07-02T07:02:16;12.20;;;10.27;;
18425;SDS011;9340;48.756;9.226;2023-07-02T07:04:44;10.75;;;9.65;;
18425;SDS011;9340;48.756;9.226;2023-07-02T07:07:11;11.52;;;9.35;;
18425;SDS011;9340;48.756;9.226;2023-07-02T07:09:37;12.40;;;11.07;;
18425;SDS011;9340;48.756;9.226;2023-07-02T07:12:04;14.38;;;11.40;;
18425;SDS011;9340;48.756;9.226;2023-07-02T07:14:31;11.65;;;10.40;;
18425;SDS011;9340;48.756;9.226;2023-07-02T07:16:58;15.02;;;11.93;;
18425;SDS011;9340;48.756;9.226;2023-07-02T07:19:25;14.50;;;11.70;;
18425;SDS011;9340;48.756;9.226;2023-07-02T07:21:53;14.68;;;11.68;;
18425;SDS011;9340;48.756;9.226;2023-07-02T07:24:19;12.70;;;11.32;;
18425;SDS011;9340;48.756;9.226;2023-07-02T07:26:46;15.10;;;12.15;;
18425;SDS011;9340;48.756;9.226;2023-07-02T07:29:13;14.73;;;11.80;;
18425;SDS011;9340;48.756;9.226;2023-07-02T07:31:40;15.20;;;12.90;;
18425;SDS011;9340;48.756;9.226;2023-07-02T07:34:06;17.45;;;11.98;;
18425;SDS011;9340;48.756;9.226;2023-07-02T07:36:33;15.57;;;12.70;;
18425;SDS011;9340;48.756;9.226;2023-07-02T07:39:01;15.38;;;13.77;;
18425;SDS011;9340;48.756;9.226;2023-07-02T07:41:28;16.95;;;13.38;;
18425;SDS011;9340;48.756;9.226;2023-07-02T07:43:55;15.63;;;14.07;;
18425;SDS011;9340;48.756;9.226;2023-07-02T07:46:21;15.20;;;12.93;;
18425;SDS011;9340;48.756;9.226;2023-07-02T07:48:48;18.83;;;14.93;;
18425;SDS011;9340;48.756;9.226;2023-07-02T07:51:15;16.83;;;14.02;;
18425;SDS011;9340;48.756;9.226;2023-07-02T07:53:41;15.65;;;14.02;;
18425;SDS011;9340;48.756;9.226;2023-07-02T07:56:09;16.75;;;14.43;;
18425;SDS011;9340;48.756;9.226;2023-07-02T07:58:36;15.27;;;13.68;;
18425;SDS011;9340;48.756;9.226;2023-07-02T08:01:02;17.48;;;13.88;;
18425;SDS011;9340;48.756;9.226;2023-07-02T08:03:30;17.42;;;15.40;;
18425;SDS011;9340;48.756;9.226;2023-07-02T08:05:56;18.02;;;15.50;;
18425;SDS011;9340;48.756;9.226;2023-07-02T08:08:23;17.02;;;14.32;;
18425;SDS011;9340;48.756;9.226;2023-07-02T08:10:50;16.67;;;14.63;;
18425;SDS011;9340;48.756;9.226;2023-07-02T08:13:18;16.17;;;14.38;;
18425;SDS011;9340;48.756;9.226;2023-07-02T08:15:44;15.68;;;14.02;;
18425;SDS011;9340;48.756;9.226;2023-07-02T08:18:11;16.17;;;14.15;;
18425;SDS011;9340;48.756;9.226;2023-07-02T08:20:38;18.80;;;15.30;;
18425;SDS011;9340;48.756;9.226;2023-07-02T08:23:05;16.63;;;14.85;;
18425;SDS011;9340;48.756;9.226;2023-07-02T08:25:32;15.75;;;14.02;;
18425;SDS011;9340;48.756;9.226;2023-07-02T08:27:59;14.98;;;13.48;;
18425;SDS011;9340;48.756;9.226;2023-07-02T08:30:27;17.08;;;14.48;;
18425;SDS011;9340;48.756;9.226;2023-07-02T08:32:53;18.08;;;15.63;;
18425;SDS011;9340;48.756;9.226;2023-07-02T08:35:20;15.75;;;14.10;;
18425;SDS011;9340;48.756;9.226;2023-07-02T08:37:48;17.67;;;15.77;;
18425;SDS011;9340;48.756;9.226;2023-07-02T08:40:15;16.30;;;14.48;;
18425;SDS011;9340;48.756;9.226;2023-07-02T08:42:42;15.60;;;13.82;;
18425;SDS011;9340;48.756;9.226;2023-07-02T08:45:10;16.27;;;14.68;;
18425;SDS011;9340;48.756;9.226;2023-07-02T08:47:40;17.17;;;14.63;;
18425;SDS011;9340;48.756;9.226;2023-07-02T08:50:08;18.48;;;15.82;;
18425;SDS011;9340;48.756;9.226;2023-07-02T08:52:35;16.35;;;13.65;;
18425;SDS011;9340;48.756;9.226;2023-07-02T08:55:01;16.27;;;14.60;;
18425;SDS011;9340;48.756;9.226;2023-07-02T08:57:28;16.52;;;14.77;;
18425;SDS011;9340;48.756;9.226;2023-07-02T08:59:55;17.55;;;14.77;;
18425;SDS011;9340;48.756;9.226;2023-07-02T09:02:29;15.85;;;14.32;;
18425;SDS011;9340;48.756;9.226;2023-07-02T09:05:02;16.02;;;14.35;;
18425;SDS011;9340;48.756;9.226;2023-07-02T09:07:29;19.77;;;15.27;;
18425;SDS011;9340;48.756;9.226;2023-07-02T09:09:56;18.33;;;14.50;;
18425;SDS011;9340;48.756;9.226;2023-07-02T09:12:23;16.25;;;14.38;;
18425;SDS011;9340;48.756;9.226;2023-07-02T09:14:54;16.85;;;13.52;;
18425;SDS011;9340;48.756;9.226;2023-07-02T09:17:26;15.25;;;13.65;;
18425;SDS011;9340;48.756;9.226;2023-07-02T09:19:54;15.18;;;13.35;;
18425;SDS011;9340;48.756;9.226;2023-07-02T09:22:22;17.00;;;13.93;;
18425;SDS011;9340;48.756;9.226;2023-07-02T09:24:52;13.60;;;11.85;;
18425;SDS011;9340;48.756;9.226;2023-07-02T09:27:20;14.20;;;12.85;;
18425;SDS011;9340;48.756;9.226;2023-07-02T09:29:49;15.23;;;13.73;;
18425;SDS011;9340;48.756;9.226;2023-07-02T09:32:23;15.50;;;12.35;;
18425;SDS011;9340;48.756;9.226;2023-07-02T09:34:51;13.95;;;12.52;;
18425;SDS011;9340;48.756;9.226;2023-07-02T09:37:20;13.70;;;12.40;;
18425;SDS011;9340;48.756;9.226;2023-07-02T09:39:49;14.07;;;12.68;;
18425;SDS011;9340;48.756;9.226;2023-07-02T09:42:17;16.02;;;12.88;;
18425;SDS011;9340;48.756;9.226;2023-07-02T09:44:45;13.88;;;12.48;;
18425;SDS011;9340;48.756;9.226;2023-07-02T09:47:12;14.60;;;13.10;;
18425;SDS011;9340;48.756;9.226;2023-07-02T09:49:43;15.30;;;13.80;;
18425;SDS011;9340;48.756;9.226;2023-07-02T09:52:14;16.17;;;13.75;;
18425;SDS011;9340;48.756;9.226;2023-07-02T09:54:44;15.80;;;13.38;;
18425;SDS011;9340;48.756;9.226;2023-07-02T09:57:12;14.85;;;12.77;;
18425;SDS011;9340;48.756;9.226;2023-07-02T09:59:41;14.65;;;13.13;;
18425;SDS011;9340;48.756;9.226;2023-07-02T10:02:08;15.48;;;13.27;;
18425;SDS011;9340;48.756;9.226;2023-07-02T10:04:39;15.00;;;12.48;;
18425;SDS011;9340;48.756;9.226;2023-07-02T10:07:07;13.95;;;12.55;;
18425;SDS011;9340;48.756;9.226;2023-07-02T10:09:34;15.00;;;13.30;;
18425;SDS011;9340;48.756;9.226;2023-07-02T10:12:02;14.95;;;13.05;;
18425;SDS011;9340;48.756;9.226;2023-07-02T10:14:42;16.63;;;14.90;;
18425;SDS011;9340;48.756;9.226;2023-07-02T10:17:09;16.92;;;15.23;;
18425;SDS011;9340;48.756;9.226;2023-07-02T10:19:37;14.68;;;13.18;;
18425;SDS011;9340;48.756;9.226;2023-07-02T10:22:04;15.63;;;13.98;;
18425;SDS011;9340;48.756;9.226;2023-07-02T10:24:32;15.93;;;14.32;;
18425;SDS011;9340;48.756;9.226;2023-07-02T10:27:00;15.82;;;13.90;;
18425;SDS011;9340;48.756;9.226;2023-07-02T10:29:29;16.58;;;14.88;;
18425;SDS011;9340;48.756;9.226;2023-07-02T10:31:56;18.05;;;15.02;;
18425;SDS011;9340;48.756;9.226;2023-07-02T10:34:31;18.08;;;16.30;;
18425;SDS011;9340;48.756;9.226;2023-07-02T10:36:59;17.30;;;15.75;;
18425;SDS011;9340;48.756;9.226;2023-07-02T10:39:27;18.30;;;16.40;;
18425;SDS011;9340;48.756;9.226;2023-07-02T10:42:03;19.40;;;17.60;;
18425;SDS011;9340;48.756;9.226;2023-07-02T10:44:31;19.08;;;17.17;;
18425;SDS011;9340;48.756;9.226;2023-07-02T10:46:58;18.88;;;16.92;;
18425;SDS011;9340;48.756;9.226;2023-07-02T10:49:30;18.08;;;16.20;;
18425;SDS011;9340;48.756;9.226;2023-07-02T10:51:58;17.73;;;15.93;;
18425;SDS011;9340;48.756;9.226;2023-07-02T10:54:25;17.67;;;15.63;;
18425;SDS011;9340;48.756;9.226;2023-07-02T10:56:56;17.70;;;15.85;;
18425;SDS011;9340;48.756;9.226;2023-07-02T10:59:23;18.05;;;16.25;;
18425;SDS011;9340;48.756;9.226;2023-07-02T11:01:52;16.98;;;15.27;;
18425;SDS011;9340;48.756;9.226;2023-07-02T11:04:20;17.20;;;15.48;;
18425;SDS011;9340;48.756;9.226;2023-07-02T11:06:47;17.50;;;15.90;;
18425;SDS011;9340;48.756;9.226;2023-07-02T11:09:17;18.27;;;16.38;;
18425;SDS011;9340;48.756;9.226;2023-07-02T11:11:51;17.92;;;16.23;;
18425;SDS011;9340;48.756;9.226;2023-07-02T11:14:28;16.45;;;14.77;;
18425;SDS011;9340;48.756;9.226;2023-07-02T11:16:57;17.08;;;15.38;;
18425;SDS011;9340;48.756;9.226;2023-07-02T11:19:27;18.80;;;17.00;;
18425;SDS011;9340;48.756;9.226;2023-07-02T11:21:54;18.17;;;16.23;;
18425;SDS011;9340;48.756;9.226;2023-07-02T11:24:30;16.73;;;15.02;;
18425;SDS011;9340;48.756;9.226;2023-07-02T11:26:57;16.02;;;14.57;;
18425;SDS011;9340;48.756;9.226;2023-07-02T11:29:25;18.00;;;16.20;;
18425;SDS011;9340;48.756;9.226;2023-07-02T11:31:51;16.50;;;14.80;;
18425;SDS011;9340;48.756;9.226;2023-07-02T11:34:20;17.48;;;15.88;;
18425;SDS011;9340;48.756;9.226;2023-07-02T11:36:48;16.05;;;14.55;;
18425;SDS011;9340;48.756;9.226;2023-07-02T11:39:18;17.30;;;15.57;;
18425;SDS011;9340;48.756;9.226;2023-07-02T11:41:45;17.13;;;15.35;;
18425;SDS011;9340;48.756;9.226;2023-07-02T11:44:13;15.57;;;13.90;;
18425;SDS011;9340;48.756;9.226;2023-07-02T11:46:40;17.35;;;15.55;;
18425;SDS011;9340;48.756;9.226;2023-07-02T11:49:07;16.30;;;14.63;;
18425;SDS011;9340;48.756;9.226;2023-07-02T11:51:36;15.95;;;14.35;;
18425;SDS011;9340;48.756;9.226;2023-07-02T11:54:03;17.63;;;15.75;;
18425;SDS011;9340;48.756;9.226;2023-07-02T11:56:30;17.13;;;15.40;;
18425;SDS011;9340;48.756;9.226;2023-07-02T11:58:58;15.55;;;14.00;;
18425;SDS011;9340;48.756;9.226;2023-07-02T12:01:25;16.60;;;15.05;;
18425;SDS011;9340;48.756;9.226;2023-07-02T12:03:52;16.90;;;14.73;;
18425;SDS011;9340;48.756;9.226;2023-07-02T12:06:18;16.45;;;14.82;;
18425;SDS011;9340;48.756;9.226;2023-07-02T12:08:46;16.00;;;14.60;;
18425;SDS011;9340;48.756;9.226;2023-07-02T12:11:13;16.10;;;14.55;;
18425;SDS011;9340;48.756;9.226;2023-07-02T12:13:40;17.60;;;15.95;;
18425;SDS011;9340;48.756;9.226;2023-07-02T12:16:07;16.52;;;14.93;;
18425;SDS011;9340;48.756;9.226;2023-07-02T12:18:34;17.77;;;15.25;;
18425;SDS011;9340;48.756;9.226;2023-07-02T12:21:00;16.45;;;14.70;;
18425;SDS011;9340;48.756;9.226;2023-07-02T12:23:27;17.50;;;15.65;;
18425;SDS011;9340;48.756;9.226;2023-07-02T12:25:55;17.67;;;15.98;;
18425;SDS011;9340;48.756;9.226;2023-07-02T12:28:22;16.92;;;15.23;;
18425;SDS011;9340;48.756;9.226;2023-07-02T12:30:49;17.42;;;15.65;;
18425;SDS011;9340;48.756;9.226;2023-07-02T12:33:15;16.35;;;14.75;;
18425;SDS011;9340;48.756;9.226;2023-07-02T12:35:42;15.95;;;14.38;;
18425;SDS011;9340;48.756;9.226;2023-07-02T12:38:09;16.42;;;14.93;;
18425;SDS011;9340;48.756;9.226;2023-07-02T12:40:35;17.80;;;16.00;;
18425;SDS011;9340;48.756;9.226;2023-07-02T12:43:03;18.02;;;16.35;;
18425;SDS011;9340;48.756;9.226;2023-07-02T12:45:30;16.85;;;15.25;;
18425;SDS011;9340;48.756;9.226;2023-07-02T12:47:57;16.42;;;14.90;;
18425;SDS011;9340;48.756;9.226;2023-07-02T12:50:24;17.17;;;15.57;;
18425;SDS011;9340;48.756;9.226;2023-07-02T12:52:50;16.58;;;14.95;;
18425;SDS011;9340;48.756;9.226;2023-07-02T12:55:17;17.35;;;15.57;;
18425;SDS011;9340;48.756;9.226;2023-07-02T12:57:44;17.15;;;15.27;;
18425;SDS011;9340;48.756;9.226;2023-07-02T13:00:12;16.77;;;15.18;;
18425;SDS011;9340;48.756;9.226;2023-07-02T13:02:39;16.77;;;15.18;;
18425;SDS011;9340;48.756;9.226;2023-07-02T13:05:06;16.77;;;15.18;;
18425;SDS011;9340;48.756;9.226;2023-07-02T13:07:32;16.73;;;15.10;;
18425;SDS011;9340;48.756;9.226;2023-07-02T13:09:59;16.38;;;14.82;;
18425;SDS011;9340;48.756;9.226;2023-07-02T13:12:26;17.75;;;16.05;;
18425;SDS011;9340;48.756;9.226;2023-07-02T13:14:52;16.30;;;14.50;;
18425;SDS011;9340;48.756;9.226;2023-07-02T13:17:20;18.08;;;16.13;;
18425;SDS011;9340;48.756;9.226;2023-07-02T13:19:47;17.38;;;15.07;;
18425;SDS011;9340;48.756;9.226;2023-07-02T13:22:14;16.33;;;14.63;;
18425;SDS011;9340;48.756;9.226;2023-07-02T13:24:41;17.27;;;15.57;;
18425;SDS011;9340;48.756;9.226;2023-07-02T13:27:09;17.02;;;15.43;;
18425;SDS011;9340;48.756;9.226;2023-07-02T13:29:39;17.10;;;15.52;;
18425;SDS011;9340;48.756;9.226;2023-07-02T13:32:06;17.92;;;16.10;;
18425;SDS011;9340;48.756;9.226;2023-07-02T13:34:35;15.63;;;14.18;;
18425;SDS011;9340;48.756;9.226;2023-07-02T13:37:01;17.08;;;15.55;;
18425;SDS011;9340;48.756;9.226;2023-07-02T13:39:28;16.98;;;15.02;;
18425;SDS011;9340;48.756;9.226;2023-07-02T13:41:55;16.75;;;15.15;;
18425;SDS011;9340;48.756;9.226;2023-07-02T13:44:22;16.98;;;15.35;;
18425;SDS011;9340;48.756;9.226;2023-07-02T13:46:49;17.27;;;15.57;;
18425;SDS011;9340;48.756;9.226;2023-07-02T13:49:15;17.48;;;15.68;;
18425;SDS011;9340;48.756;9.226;2023-07-02T13:51:43;15.93;;;14.43;;
18425;SDS011;9340;48.756;9.226;2023-07-02T13:54:11;16.65;;;14.88;;
18425;SDS011;9340;48.756;9.226;2023-07-02T13:56:39;15.90;;;14.40;;
18425;SDS011;9340;48.756;9.226;2023-07-02T13:59:07;15.75;;;14.30;;
18425;SDS011;9340;48.756;9.226;2023-07-02T14:01:34;17.13;;;15.38;;
18425;SDS011;9340;48.756;9.226;2023-07-02T14:04:00;16.23;;;14.50;;
18425;SDS011;9340;48.756;9.226;2023-07-02T14:06:28;16.58;;;14.98;;
18425;SDS011;9340;48.756;9.226;2023-07-02T14:08:55;16.48;;;14.88;;
18425;SDS011;9340;48.756;9.226;2023-07-02T14:11:22;16.08;;;14.50;;
18425;SDS011;9340;48.756;9.226;2023-07-02T14:13:49;16.95;;;15.35;;
18425;SDS011;9340;48.756;9.226;2023-07-02T14:16:18;17.17;;;15.57;;
18425;SDS011;9340;48.756;9.226;2023-07-02T14:18:44;16.40;;;14.77;;
18425;SDS011;9340;48.756;9.226;2023-07-02T14:21:11;16.35;;;14.85;;
18425;SDS011;9340;48.756;9.226;2023-07-02T14:23:38;18.05;;;16.25;;
18425;SDS011;9340;48.756;9.226;2023-07-02T14:26:05;17.58;;;15.77;;
18425;SDS011;9340;48.756;9.226;2023-07-02T14:28:32;17.15;;;15.40;;
18425;SDS011;9340;48.756;9.226;2023-07-02T14:31:00;17.48;;;15.73;;
18425;SDS011;9340;48.756;9.226;2023-07-02T14:33:29;16.65;;;15.05;;
18425;SDS011;9340;48.756;9.226;2023-07-02T14:35:58;16.33;;;14.73;;
18425;SDS011;9340;48.756;9.226;2023-07-02T14:38:24;16.10;;;14.65;;
18425;SDS011;9340;48.756;9.226;2023-07-02T14:40:52;16.52;;;14.93;;
18425;SDS011;9340;48.756;9.226;2023-07-02T14:43:20;17.50;;;15.70;;
18425;SDS011;9340;48.756;9.226;2023-07-02T14:45:48;16.70;;;15.18;;